Sy Clevelander — 2CWE8 — position and weather

sailwx.info

Track history (hours):
 
Tides and Currents Weather Stations Pressure Air Temp Water Temp Dewpoint Dewpoint Depression Visibility Wind Speed Wind Dir Waves Ship Positions

Sy Clevelander

Last reported at 2015-Sep-01 02:33 UTC. Time now 2015-Sep-01 16:11 UTC.
Position N 40°09' E 012°59'.

Length 25 m.

Type: Sailing vessel. MMSI: 235076308.

Date/timePositionNaut miles runAvg speedWind from/ knotsBaromVisibWave heightAir tempDewpointWater temp
2015-Sep-01 02:33N 40°09' E 012°59'28 8.7
2015-Aug-31 23:21N 39°59' E 012°25'7 8.6
2015-Aug-31 22:31N 39°56' E 012°17'  
2015-Aug-29 14:13N 39°05' E 009°26'5 7.6
2015-Aug-29 13:32N 39°03' E 009°20'7 7.3
2015-Aug-29 12:32N 39°00' E 009°11'15 7.4
2015-Aug-29 10:30N 38°53' E 008°54'6 6.5
2015-Aug-29 09:32N 38°52' E 008°46'6 6.0
2015-Aug-29 08:33N 38°51' E 008°38'243 5.3
2015-Aug-27 10:31N 39°14' E 003°27'8 8.8
2015-Aug-27 09:33N 39°15' E 003°16'10 8.2
2015-Aug-27 08:22N 39°15' E 003°04'6 6.8
2015-Aug-27 07:33N 39°17' E 002°57'8 8.3
2015-Aug-27 06:33N 39°21' E 002°48'9 8.6
2015-Aug-27 05:33N 39°28' E 002°41'6 6.4
2015-Aug-27 04:33N 39°34' E 002°38'0 0.0
2015-Aug-27 03:33N 39°34' E 002°38'0 0.0
2015-Aug-27 02:33N 39°34' E 002°38'0 0.0
2015-Aug-27 01:33N 39°34' E 002°38'0 0.0
2015-Aug-27 00:33N 39°34' E 002°38'0 0.0
2015-Aug-26 23:33N 39°34' E 002°38'0 0.0
2015-Aug-26 22:33N 39°34' E 002°38'0 0.0
2015-Aug-26 21:30N 39°34' E 002°38'0 0.0
2015-Aug-26 20:33N 39°34' E 002°38'0 0.0
2015-Aug-26 19:33N 39°34' E 002°38'0 0.0
2015-Aug-26 18:33N 39°34' E 002°38'0 0.0
2015-Aug-26 17:33N 39°34' E 002°38'0 0.0
2015-Aug-26 16:33N 39°34' E 002°38'0 0.0
2015-Aug-26 15:33N 39°34' E 002°38'0 0.0
2015-Aug-26 14:33N 39°34' E 002°38'0 0.0
2015-Aug-26 13:33N 39°34' E 002°38'0 0.0
2015-Aug-26 12:33N 39°34' E 002°38'0 0.0
2015-Aug-26 11:33N 39°34' E 002°38'0 0.0
2015-Aug-26 10:33N 39°34' E 002°38'0 0.0
2015-Aug-26 09:33N 39°34' E 002°38'0 0.0
2015-Aug-26 08:33N 39°34' E 002°38'2 1.7
2015-Aug-26 07:33N 39°32' E 002°39'2 1.7
2015-Aug-26 06:31N 39°34' E 002°38'0 0.0
2015-Aug-26 05:31N 39°34' E 002°38'0 0.0
2015-Aug-26 04:31N 39°34' E 002°38'0 0.0
2015-Aug-26 03:31N 39°34' E 002°38'0 0.0
2015-Aug-26 02:31N 39°34' E 002°38'0 0.0
2015-Aug-26 01:31N 39°34' E 002°38'0 0.0
2015-Aug-26 00:31N 39°34' E 002°38'0 0.0
2015-Aug-25 23:31N 39°34' E 002°38'0 0.0
2015-Aug-25 22:31N 39°34' E 002°38'0 0.0
2015-Aug-25 21:31N 39°34' E 002°38'0 0.0
2015-Aug-25 20:32N 39°34' E 002°38'0 0.0
2015-Aug-25 19:32N 39°34' E 002°38'0 0.0
2015-Aug-25 18:32N 39°34' E 002°38'0 0.0
2015-Aug-25 17:32N 39°34' E 002°38'0 0.0
2015-Aug-25 16:32N 39°34' E 002°38'0 0.0
2015-Aug-25 15:32N 39°34' E 002°38'0 0.0
2015-Aug-25 14:32N 39°34' E 002°38'0 0.0
2015-Aug-25 13:32N 39°34' E 002°38'0 0.0
2015-Aug-25 12:32N 39°34' E 002°38'0 0.0
2015-Aug-25 11:32N 39°34' E 002°38'0 0.0
2015-Aug-25 10:32N 39°34' E 002°38'0 0.0
2015-Aug-25 09:32N 39°34' E 002°38'0 0.0
2015-Aug-25 08:32N 39°34' E 002°38'0 0.0
2015-Aug-25 07:32N 39°34' E 002°38'0 0.0
2015-Aug-25 06:32N 39°34' E 002°38'0 0.0
2015-Aug-25 05:32N 39°34' E 002°38'0 0.0
2015-Aug-25 04:32N 39°34' E 002°38'0 0.0
2015-Aug-25 03:32N 39°34' E 002°38'0 0.0
2015-Aug-25 02:32N 39°34' E 002°38'0 0.0
2015-Aug-25 01:32N 39°34' E 002°38'0 0.0
2015-Aug-25 00:32N 39°34' E 002°38'0 0.0
2015-Aug-24 23:32N 39°34' E 002°38'0 0.0
2015-Aug-24 22:32N 39°34' E 002°38'0 0.0
2015-Aug-24 21:32N 39°34' E 002°38'0 0.0
2015-Aug-24 20:32N 39°34' E 002°38'0 0.0
2015-Aug-24 19:32N 39°34' E 002°38'0 0.0
2015-Aug-24 18:32N 39°34' E 002°38'0 0.0
2015-Aug-24 17:32N 39°34' E 002°38'0 0.0
2015-Aug-24 16:32N 39°34' E 002°38'0 0.0
2015-Aug-24 15:32N 39°34' E 002°38'0 0.0
2015-Aug-24 14:32N 39°34' E 002°38'0 0.0
2015-Aug-24 13:32N 39°34' E 002°38'0 0.0
2015-Aug-24 12:32N 39°34' E 002°38'0 0.0
2015-Aug-24 11:32N 39°34' E 002°38'0 0.0
2015-Aug-24 10:29N 39°34' E 002°38'0 0.0
2015-Aug-24 09:32N 39°34' E 002°38'0 0.0
2015-Aug-24 08:32N 39°34' E 002°38'0 0.0
2015-Aug-24 07:32N 39°34' E 002°38'0 0.0
2015-Aug-24 06:32N 39°34' E 002°38'0 0.0
2015-Aug-24 05:32N 39°34' E 002°38'0 0.0
2015-Aug-24 04:29N 39°34' E 002°38'0 0.0
2015-Aug-24 03:32N 39°34' E 002°38'0 0.0
2015-Aug-24 02:29N 39°34' E 002°38'0 0.0
2015-Aug-24 01:32N 39°34' E 002°38'0 0.0
2015-Aug-24 00:29N 39°34' E 002°38'0 0.0
2015-Aug-23 23:32N 39°34' E 002°38'0 0.0
2015-Aug-23 22:29N 39°34' E 002°38'0 0.0
2015-Aug-23 21:29N 39°34' E 002°38'0 0.0
2015-Aug-23 20:32N 39°34' E 002°38'0 0.0
2015-Aug-23 19:32N 39°34' E 002°38'0 0.0
2015-Aug-23 18:32N 39°34' E 002°38'0 0.0
2015-Aug-23 17:32N 39°34' E 002°38'0 0.0
2015-Aug-23 16:29N 39°34' E 002°38'0 0.0
2015-Aug-23 15:32N 39°34' E 002°38'0 0.0
2015-Aug-23 14:32N 39°34' E 002°38'0 0.0
2015-Aug-23 13:32N 39°34' E 002°38'0 0.0
2015-Aug-23 12:32N 39°34' E 002°38'0 0.0
2015-Aug-23 11:29N 39°34' E 002°38'0 0.0
2015-Aug-23 10:32N 39°34' E 002°38'0 0.0
2015-Aug-23 09:29N 39°34' E 002°38'0 0.0
2015-Aug-23 08:32N 39°34' E 002°38'0 0.0
2015-Aug-23 07:32N 39°34' E 002°38'0 0.0
2015-Aug-23 06:32N 39°34' E 002°38'0 0.0
2015-Aug-23 05:32N 39°34' E 002°38'0 0.0
2015-Aug-23 04:29N 39°34' E 002°38'0 0.0
2015-Aug-23 03:32N 39°34' E 002°38'0 0.0
2015-Aug-23 02:31N 39°34' E 002°38'0 0.0
2015-Aug-23 01:31N 39°34' E 002°38'0 0.0
2015-Aug-23 00:31N 39°34' E 002°38'0 0.0
2015-Aug-22 23:31N 39°34' E 002°38'0 0.0
2015-Aug-22 22:25N 39°34' E 002°38'0 0.0
2015-Aug-22 21:31N 39°34' E 002°38'0 0.0
2015-Aug-22 20:31N 39°34' E 002°38'0 0.0
2015-Aug-22 19:31N 39°34' E 002°38'0 0.0
2015-Aug-22 18:31N 39°34' E 002°38'0 0.0
2015-Aug-22 17:31N 39°34' E 002°38'0 0.0
2015-Aug-22 16:31N 39°34' E 002°38'0 0.0
2015-Aug-22 15:31N 39°34' E 002°38'0 0.0
2015-Aug-22 14:31N 39°34' E 002°38'0 0.0
2015-Aug-22 13:31N 39°34' E 002°38'0 0.0
2015-Aug-22 12:31N 39°34' E 002°38'0 0.0
2015-Aug-22 11:31N 39°34' E 002°38'0 0.0
2015-Aug-22 10:31N 39°34' E 002°38'0 0.0
2015-Aug-22 09:31N 39°34' E 002°38'0 0.0
2015-Aug-22 08:31N 39°34' E 002°38'0 0.0
2015-Aug-22 07:31N 39°34' E 002°38'0 0.0
2015-Aug-22 06:28N 39°34' E 002°38'0 0.0
2015-Aug-22 05:31N 39°34' E 002°38'0 0.0
2015-Aug-22 04:31N 39°34' E 002°38'0 0.0
2015-Aug-22 03:31N 39°34' E 002°38'  
Track history (hours):
 
Tides and Currents Weather Stations Pressure Air Temp Water Temp Dewpoint Dewpoint Depression Visibility Wind Speed Wind Dir Waves Ship Positions

Sy Clevelander

Last reported at 2015-Sep-01 02:33 UTC. Time now 2015-Sep-01 16:11 UTC.
Position N 40°09' E 012°59'.

Length 25 m.

Type: Sailing vessel. MMSI: 235076308.

Date/timePositionNaut miles runAvg speedWind from/ knotsBaromVisibWave heightAir tempDewpointWater temp
2015-Sep-01 02:33N 40°09' E 012°59'28 8.7
2015-Aug-31 23:21N 39°59' E 012°25'7 8.6
2015-Aug-31 22:31N 39°56' E 012°17'  
2015-Aug-29 14:13N 39°05' E 009°26'5 7.6
2015-Aug-29 13:32N 39°03' E 009°20'7 7.3
2015-Aug-29 12:32N 39°00' E 009°11'15 7.4
2015-Aug-29 10:30N 38°53' E 008°54'6 6.5
2015-Aug-29 09:32N 38°52' E 008°46'6 6.0
2015-Aug-29 08:33N 38°51' E 008°38'243 5.3
2015-Aug-27 10:31N 39°14' E 003°27'8 8.8
2015-Aug-27 09:33N 39°15' E 003°16'10 8.2
2015-Aug-27 08:22N 39°15' E 003°04'6 6.8
2015-Aug-27 07:33N 39°17' E 002°57'8 8.3
2015-Aug-27 06:33N 39°21' E 002°48'9 8.6
2015-Aug-27 05:33N 39°28' E 002°41'6 6.4
2015-Aug-27 04:33N 39°34' E 002°38'0 0.0
2015-Aug-27 03:33N 39°34' E 002°38'0 0.0
2015-Aug-27 02:33N 39°34' E 002°38'0 0.0
2015-Aug-27 01:33N 39°34' E 002°38'0 0.0
2015-Aug-27 00:33N 39°34' E 002°38'0 0.0
2015-Aug-26 23:33N 39°34' E 002°38'0 0.0
2015-Aug-26 22:33N 39°34' E 002°38'0 0.0
2015-Aug-26 21:30N 39°34' E 002°38'0 0.0
2015-Aug-26 20:33N 39°34' E 002°38'0 0.0
2015-Aug-26 19:33N 39°34' E 002°38'0 0.0
2015-Aug-26 18:33N 39°34' E 002°38'0 0.0
2015-Aug-26 17:33N 39°34' E 002°38'0 0.0
2015-Aug-26 16:33N 39°34' E 002°38'0 0.0
2015-Aug-26 15:33N 39°34' E 002°38'0 0.0
2015-Aug-26 14:33N 39°34' E 002°38'0 0.0
2015-Aug-26 13:33N 39°34' E 002°38'0 0.0
2015-Aug-26 12:33N 39°34' E 002°38'0 0.0
2015-Aug-26 11:33N 39°34' E 002°38'0 0.0
2015-Aug-26 10:33N 39°34' E 002°38'0 0.0
2015-Aug-26 09:33N 39°34' E 002°38'0 0.0
2015-Aug-26 08:33N 39°34' E 002°38'2 1.7
2015-Aug-26 07:33N 39°32' E 002°39'2 1.7
2015-Aug-26 06:31N 39°34' E 002°38'0 0.0
2015-Aug-26 05:31N 39°34' E 002°38'0 0.0
2015-Aug-26 04:31N 39°34' E 002°38'0 0.0
2015-Aug-26 03:31N 39°34' E 002°38'0 0.0
2015-Aug-26 02:31N 39°34' E 002°38'0 0.0
2015-Aug-26 01:31N 39°34' E 002°38'0 0.0
2015-Aug-26 00:31N 39°34' E 002°38'0 0.0
2015-Aug-25 23:31N 39°34' E 002°38'0 0.0
2015-Aug-25 22:31N 39°34' E 002°38'0 0.0
2015-Aug-25 21:31N 39°34' E 002°38'0 0.0
2015-Aug-25 20:32N 39°34' E 002°38'0 0.0
2015-Aug-25 19:32N 39°34' E 002°38'0 0.0
2015-Aug-25 18:32N 39°34' E 002°38'0 0.0
2015-Aug-25 17:32N 39°34' E 002°38'0 0.0
2015-Aug-25 16:32N 39°34' E 002°38'0 0.0
2015-Aug-25 15:32N 39°34' E 002°38'0 0.0
2015-Aug-25 14:32N 39°34' E 002°38'0 0.0
2015-Aug-25 13:32N 39°34' E 002°38'0 0.0
2015-Aug-25 12:32N 39°34' E 002°38'0 0.0
2015-Aug-25 11:32N 39°34' E 002°38'0 0.0
2015-Aug-25 10:32N 39°34' E 002°38'0 0.0
2015-Aug-25 09:32N 39°34' E 002°38'0 0.0
2015-Aug-25 08:32N 39°34' E 002°38'0 0.0
2015-Aug-25 07:32N 39°34' E 002°38'0 0.0
2015-Aug-25 06:32N 39°34' E 002°38'0 0.0
2015-Aug-25 05:32N 39°34' E 002°38'0 0.0
2015-Aug-25 04:32N 39°34' E 002°38'0 0.0
2015-Aug-25 03:32N 39°34' E 002°38'0 0.0
2015-Aug-25 02:32N 39°34' E 002°38'0 0.0
2015-Aug-25 01:32N 39°34' E 002°38'0 0.0
2015-Aug-25 00:32N 39°34' E 002°38'0 0.0
2015-Aug-24 23:32N 39°34' E 002°38'0 0.0
2015-Aug-24 22:32N 39°34' E 002°38'0 0.0
2015-Aug-24 21:32N 39°34' E 002°38'0 0.0
2015-Aug-24 20:32N 39°34' E 002°38'0 0.0
2015-Aug-24 19:32N 39°34' E 002°38'0 0.0
2015-Aug-24 18:32N 39°34' E 002°38'0 0.0
2015-Aug-24 17:32N 39°34' E 002°38'0 0.0
2015-Aug-24 16:32N 39°34' E 002°38'0 0.0
2015-Aug-24 15:32N 39°34' E 002°38'0 0.0
2015-Aug-24 14:32N 39°34' E 002°38'0 0.0
2015-Aug-24 13:32N 39°34' E 002°38'0 0.0
2015-Aug-24 12:32N 39°34' E 002°38'0 0.0
2015-Aug-24 11:32N 39°34' E 002°38'0 0.0
2015-Aug-24 10:29N 39°34' E 002°38'0 0.0
2015-Aug-24 09:32N 39°34' E 002°38'0 0.0
2015-Aug-24 08:32N 39°34' E 002°38'0 0.0
2015-Aug-24 07:32N 39°34' E 002°38'0 0.0
2015-Aug-24 06:32N 39°34' E 002°38'0 0.0
2015-Aug-24 05:32N 39°34' E 002°38'0 0.0
2015-Aug-24 04:29N 39°34' E 002°38'0 0.0
2015-Aug-24 03:32N 39°34' E 002°38'0 0.0
2015-Aug-24 02:29N 39°34' E 002°38'0 0.0
2015-Aug-24 01:32N 39°34' E 002°38'0 0.0
2015-Aug-24 00:29N 39°34' E 002°38'0 0.0
2015-Aug-23 23:32N 39°34' E 002°38'0 0.0
2015-Aug-23 22:29N 39°34' E 002°38'0 0.0
2015-Aug-23 21:29N 39°34' E 002°38'0 0.0
2015-Aug-23 20:32N 39°34' E 002°38'0 0.0
2015-Aug-23 19:32N 39°34' E 002°38'0 0.0
2015-Aug-23 18:32N 39°34' E 002°38'0 0.0
2015-Aug-23 17:32N 39°34' E 002°38'0 0.0
2015-Aug-23 16:29N 39°34' E 002°38'0 0.0
2015-Aug-23 15:32N 39°34' E 002°38'0 0.0
2015-Aug-23 14:32N 39°34' E 002°38'0 0.0
2015-Aug-23 13:32N 39°34' E 002°38'0 0.0
2015-Aug-23 12:32N 39°34' E 002°38'0 0.0
2015-Aug-23 11:29N 39°34' E 002°38'0 0.0
2015-Aug-23 10:32N 39°34' E 002°38'0 0.0
2015-Aug-23 09:29N 39°34' E 002°38'0 0.0
2015-Aug-23 08:32N 39°34' E 002°38'0 0.0
2015-Aug-23 07:32N 39°34' E 002°38'0 0.0
2015-Aug-23 06:32N 39°34' E 002°38'0 0.0
2015-Aug-23 05:32N 39°34' E 002°38'0 0.0
2015-Aug-23 04:29N 39°34' E 002°38'0 0.0
2015-Aug-23 03:32N 39°34' E 002°38'0 0.0
2015-Aug-23 02:31N 39°34' E 002°38'0 0.0
2015-Aug-23 01:31N 39°34' E 002°38'0 0.0
2015-Aug-23 00:31N 39°34' E 002°38'0 0.0
2015-Aug-22 23:31N 39°34' E 002°38'0 0.0
2015-Aug-22 22:25N 39°34' E 002°38'0 0.0
2015-Aug-22 21:31N 39°34' E 002°38'0 0.0
2015-Aug-22 20:31N 39°34' E 002°38'0 0.0
2015-Aug-22 19:31N 39°34' E 002°38'0 0.0
2015-Aug-22 18:31N 39°34' E 002°38'0 0.0
2015-Aug-22 17:31N 39°34' E 002°38'0 0.0
2015-Aug-22 16:31N 39°34' E 002°38'0 0.0
2015-Aug-22 15:31N 39°34' E 002°38'0 0.0
2015-Aug-22 14:31N 39°34' E 002°38'0 0.0
2015-Aug-22 13:31N 39°34' E 002°38'0 0.0
2015-Aug-22 12:31N 39°34' E 002°38'0 0.0
2015-Aug-22 11:31N 39°34' E 002°38'0 0.0
2015-Aug-22 10:31N 39°34' E 002°38'0 0.0
2015-Aug-22 09:31N 39°34' E 002°38'0 0.0
2015-Aug-22 08:31N 39°34' E 002°38'0 0.0
2015-Aug-22 07:31N 39°34' E 002°38'0 0.0
2015-Aug-22 06:28N 39°34' E 002°38'0 0.0
2015-Aug-22 05:31N 39°34' E 002°38'0 0.0
2015-Aug-22 04:31N 39°34' E 002°38'0 0.0
2015-Aug-22 03:31N 39°34' E 002°38'  

Dump ship's entire track history